sensor_id;sensor_type;location;lat;lon;timestamp;P1;durP1;ratioP1;P2;durP2;ratioP2
76194;SDS011;64964;48.694;21.206;2023-12-07T00:00:14;12.77;;;6.32;;
76194;SDS011;64964;48.694;21.206;2023-12-07T00:02:40;13.85;;;7.43;;
76194;SDS011;64964;48.694;21.206;2023-12-07T00:05:06;13.20;;;6.53;;
76194;SDS011;64964;48.694;21.206;2023-12-07T00:07:31;9.55;;;5.60;;
76194;SDS011;64964;48.694;21.206;2023-12-07T00:09:57;12.73;;;6.47;;
76194;SDS011;64964;48.694;21.206;2023-12-07T00:12:22;12.27;;;6.40;;
76194;SDS011;64964;48.694;21.206;2023-12-07T00:14:47;11.23;;;6.00;;
76194;SDS011;64964;48.694;21.206;2023-12-07T00:17:13;11.53;;;6.20;;
76194;SDS011;64964;48.694;21.206;2023-12-07T00:19:39;10.60;;;6.05;;
76194;SDS011;64964;48.694;21.206;2023-12-07T00:22:04;10.50;;;6.05;;
76194;SDS011;64964;48.694;21.206;2023-12-07T00:24:30;12.10;;;6.40;;
76194;SDS011;64964;48.694;21.206;2023-12-07T00:26:55;13.37;;;5.97;;
76194;SDS011;64964;48.694;21.206;2023-12-07T00:29:21;15.37;;;6.33;;
76194;SDS011;64964;48.694;21.206;2023-12-07T00:31:46;11.23;;;6.13;;
76194;SDS011;64964;48.694;21.206;2023-12-07T00:34:12;11.47;;;6.37;;
76194;SDS011;64964;48.694;21.206;2023-12-07T00:36:37;10.63;;;6.07;;
76194;SDS011;64964;48.694;21.206;2023-12-07T00:39:04;10.80;;;6.18;;
76194;SDS011;64964;48.694;21.206;2023-12-07T00:41:29;10.97;;;6.17;;
76194;SDS011;64964;48.694;21.206;2023-12-07T00:43:55;11.30;;;5.53;;
76194;SDS011;64964;48.694;21.206;2023-12-07T00:46:20;9.32;;;5.00;;
76194;SDS011;64964;48.694;21.206;2023-12-07T00:48:45;9.97;;;5.17;;
76194;SDS011;64964;48.694;21.206;2023-12-07T00:51:11;10.80;;;5.13;;
76194;SDS011;64964;48.694;21.206;2023-12-07T00:53:36;11.90;;;5.60;;
76194;SDS011;64964;48.694;21.206;2023-12-07T00:56:02;11.88;;;5.13;;
76194;SDS011;64964;48.694;21.206;2023-12-07T00:58:29;9.97;;;5.23;;
76194;SDS011;64964;48.694;21.206;2023-12-07T01:00:54;9.50;;;4.90;;
76194;SDS011;64964;48.694;21.206;2023-12-07T01:03:20;7.87;;;4.73;;
76194;SDS011;64964;48.694;21.206;2023-12-07T01:05:45;8.10;;;4.83;;
76194;SDS011;64964;48.694;21.206;2023-12-07T01:08:10;9.40;;;4.23;;
76194;SDS011;64964;48.694;21.206;2023-12-07T01:10:36;9.32;;;4.68;;
76194;SDS011;64964;48.694;21.206;2023-12-07T01:13:02;7.93;;;4.47;;
76194;SDS011;64964;48.694;21.206;2023-12-07T01:15:27;8.68;;;4.40;;
76194;SDS011;64964;48.694;21.206;2023-12-07T01:17:52;8.50;;;4.67;;
76194;SDS011;64964;48.694;21.206;2023-12-07T01:20:18;8.73;;;4.50;;
76194;SDS011;64964;48.694;21.206;2023-12-07T01:22:43;8.97;;;4.60;;
76194;SDS011;64964;48.694;21.206;2023-12-07T01:25:10;8.25;;;4.28;;
76194;SDS011;64964;48.694;21.206;2023-12-07T01:27:36;8.23;;;4.87;;
76194;SDS011;64964;48.694;21.206;2023-12-07T01:30:02;7.63;;;4.20;;
76194;SDS011;64964;48.694;21.206;2023-12-07T01:32:28;8.40;;;4.47;;
76194;SDS011;64964;48.694;21.206;2023-12-07T01:34:54;7.75;;;4.60;;
76194;SDS011;64964;48.694;21.206;2023-12-07T01:37:19;7.47;;;4.47;;
76194;SDS011;64964;48.694;21.206;2023-12-07T01:39:45;9.00;;;4.60;;
76194;SDS011;64964;48.694;21.206;2023-12-07T01:42:10;7.33;;;4.43;;
76194;SDS011;64964;48.694;21.206;2023-12-07T01:44:37;8.35;;;4.60;;
76194;SDS011;64964;48.694;21.206;2023-12-07T01:47:03;7.20;;;4.33;;
76194;SDS011;64964;48.694;21.206;2023-12-07T01:49:29;8.68;;;4.47;;
76194;SDS011;64964;48.694;21.206;2023-12-07T01:51:56;8.52;;;4.75;;
76194;SDS011;64964;48.694;21.206;2023-12-07T01:54:22;9.88;;;5.10;;
76194;SDS011;64964;48.694;21.206;2023-12-07T01:56:47;9.60;;;5.67;;
76194;SDS011;64964;48.694;21.206;2023-12-07T01:59:13;9.40;;;4.82;;
76194;SDS011;64964;48.694;21.206;2023-12-07T02:01:38;9.00;;;5.03;;
76194;SDS011;64964;48.694;21.206;2023-12-07T02:04:04;9.97;;;4.97;;
76194;SDS011;64964;48.694;21.206;2023-12-07T02:06:29;10.03;;;5.10;;
76194;SDS011;64964;48.694;21.206;2023-12-07T02:08:55;8.80;;;5.20;;
76194;SDS011;64964;48.694;21.206;2023-12-07T02:11:21;11.15;;;5.35;;
76194;SDS011;64964;48.694;21.206;2023-12-07T02:13:46;8.87;;;4.73;;
76194;SDS011;64964;48.694;21.206;2023-12-07T02:16:22;8.70;;;4.90;;
76194;SDS011;64964;48.694;21.206;2023-12-07T02:19:21;10.35;;;4.97;;
76194;SDS011;64964;48.694;21.206;2023-12-07T02:21:53;10.30;;;4.80;;
76194;SDS011;64964;48.694;21.206;2023-12-07T02:24:25;11.30;;;4.90;;
76194;SDS011;64964;48.694;21.206;2023-12-07T02:26:53;9.15;;;4.85;;
76194;SDS011;64964;48.694;21.206;2023-12-07T02:29:19;10.50;;;4.83;;
76194;SDS011;64964;48.694;21.206;2023-12-07T02:31:44;11.80;;;5.37;;
76194;SDS011;64964;48.694;21.206;2023-12-07T02:34:10;10.23;;;5.10;;
76194;SDS011;64964;48.694;21.206;2023-12-07T02:36:35;9.37;;;4.80;;
76194;SDS011;64964;48.694;21.206;2023-12-07T02:39:03;9.63;;;5.35;;
76194;SDS011;64964;48.694;21.206;2023-12-07T02:41:30;11.63;;;5.53;;
76194;SDS011;64964;48.694;21.206;2023-12-07T02:43:57;10.52;;;5.18;;
76194;SDS011;64964;48.694;21.206;2023-12-07T02:46:23;10.20;;;5.13;;
76194;SDS011;64964;48.694;21.206;2023-12-07T02:48:49;9.73;;;5.10;;
76194;SDS011;64964;48.694;21.206;2023-12-07T02:51:14;9.87;;;5.27;;
76194;SDS011;64964;48.694;21.206;2023-12-07T02:53:40;9.37;;;5.07;;
76194;SDS011;64964;48.694;21.206;2023-12-07T02:56:05;9.73;;;5.05;;
76194;SDS011;64964;48.694;21.206;2023-12-07T02:58:31;9.37;;;5.43;;
76194;SDS011;64964;48.694;21.206;2023-12-07T03:00:57;10.95;;;5.38;;
76194;SDS011;64964;48.694;21.206;2023-12-07T03:03:22;9.50;;;5.20;;
76194;SDS011;64964;48.694;21.206;2023-12-07T03:05:47;8.80;;;5.20;;
76194;SDS011;64964;48.694;21.206;2023-12-07T03:08:13;9.70;;;4.80;;
76194;SDS011;64964;48.694;21.206;2023-12-07T03:10:38;9.03;;;5.03;;
76194;SDS011;64964;48.694;21.206;2023-12-07T03:13:03;9.80;;;5.37;;
76194;SDS011;64964;48.694;21.206;2023-12-07T03:15:29;10.75;;;5.78;;
76194;SDS011;64964;48.694;21.206;2023-12-07T03:17:54;8.47;;;5.40;;
76194;SDS011;64964;48.694;21.206;2023-12-07T03:20:19;9.03;;;5.30;;
76194;SDS011;64964;48.694;21.206;2023-12-07T03:22:45;10.20;;;5.10;;
76194;SDS011;64964;48.694;21.206;2023-12-07T03:25:10;9.90;;;5.17;;
76194;SDS011;64964;48.694;21.206;2023-12-07T03:27:36;11.77;;;5.47;;
76194;SDS011;64964;48.694;21.206;2023-12-07T03:30:01;11.63;;;5.75;;
76194;SDS011;64964;48.694;21.206;2023-12-07T03:32:27;10.03;;;5.17;;
76194;SDS011;64964;48.694;21.206;2023-12-07T03:34:52;12.47;;;6.03;;
76194;SDS011;64964;48.694;21.206;2023-12-07T03:37:17;10.83;;;5.47;;
76194;SDS011;64964;48.694;21.206;2023-12-07T03:39:43;12.63;;;5.93;;
76194;SDS011;64964;48.694;21.206;2023-12-07T03:42:08;9.43;;;5.33;;
76194;SDS011;64964;48.694;21.206;2023-12-07T03:44:33;12.00;;;5.53;;
76194;SDS011;64964;48.694;21.206;2023-12-07T03:46:59;10.33;;;5.87;;
76194;SDS011;64964;48.694;21.206;2023-12-07T03:49:24;11.83;;;6.00;;
76194;SDS011;64964;48.694;21.206;2023-12-07T03:51:50;11.93;;;5.75;;
76194;SDS011;64964;48.694;21.206;2023-12-07T03:54:15;10.63;;;5.90;;
76194;SDS011;64964;48.694;21.206;2023-12-07T03:56:40;10.47;;;5.73;;
76194;SDS011;64964;48.694;21.206;2023-12-07T03:59:06;12.73;;;5.77;;
76194;SDS011;64964;48.694;21.206;2023-12-07T04:01:31;11.18;;;6.07;;
76194;SDS011;64964;48.694;21.206;2023-12-07T04:03:57;10.37;;;5.93;;
76194;SDS011;64964;48.694;21.206;2023-12-07T04:06:23;12.07;;;6.37;;
76194;SDS011;64964;48.694;21.206;2023-12-07T04:08:49;11.75;;;6.43;;
76194;SDS011;64964;48.694;21.206;2023-12-07T04:11:14;12.60;;;6.80;;
76194;SDS011;64964;48.694;21.206;2023-12-07T04:13:40;10.85;;;5.85;;
76194;SDS011;64964;48.694;21.206;2023-12-07T04:16:06;12.50;;;6.47;;
76194;SDS011;64964;48.694;21.206;2023-12-07T04:18:32;11.73;;;6.10;;
76194;SDS011;64964;48.694;21.206;2023-12-07T04:20:58;12.27;;;5.97;;
76194;SDS011;64964;48.694;21.206;2023-12-07T04:23:23;12.35;;;6.90;;
76194;SDS011;64964;48.694;21.206;2023-12-07T04:25:48;13.40;;;6.80;;
76194;SDS011;64964;48.694;21.206;2023-12-07T04:28:14;13.10;;;6.60;;
76194;SDS011;64964;48.694;21.206;2023-12-07T04:30:39;13.40;;;6.87;;
76194;SDS011;64964;48.694;21.206;2023-12-07T04:33:05;13.48;;;6.80;;
76194;SDS011;64964;48.694;21.206;2023-12-07T04:35:30;13.43;;;6.93;;
76194;SDS011;64964;48.694;21.206;2023-12-07T04:37:56;11.80;;;5.83;;
76194;SDS011;64964;48.694;21.206;2023-12-07T04:40:22;13.93;;;6.57;;
76194;SDS011;64964;48.694;21.206;2023-12-07T04:42:49;11.63;;;6.32;;
76194;SDS011;64964;48.694;21.206;2023-12-07T04:45:14;13.40;;;6.40;;
76194;SDS011;64964;48.694;21.206;2023-12-07T04:47:40;13.60;;;6.27;;
76194;SDS011;64964;48.694;21.206;2023-12-07T04:50:06;11.40;;;6.25;;
76194;SDS011;64964;48.694;21.206;2023-12-07T04:52:32;13.60;;;6.40;;
76194;SDS011;64964;48.694;21.206;2023-12-07T04:54:57;12.38;;;6.57;;
76194;SDS011;64964;48.694;21.206;2023-12-07T04:57:23;13.37;;;7.00;;
76194;SDS011;64964;48.694;21.206;2023-12-07T04:59:48;12.17;;;6.50;;
76194;SDS011;64964;48.694;21.206;2023-12-07T05:02:14;12.67;;;6.57;;
76194;SDS011;64964;48.694;21.206;2023-12-07T05:04:40;13.25;;;6.82;;
76194;SDS011;64964;48.694;21.206;2023-12-07T05:07:05;15.63;;;7.60;;
76194;SDS011;64964;48.694;21.206;2023-12-07T05:09:31;15.00;;;7.20;;
76194;SDS011;64964;48.694;21.206;2023-12-07T05:11:56;13.60;;;7.43;;
76194;SDS011;64964;48.694;21.206;2023-12-07T05:14:22;16.30;;;7.27;;
76194;SDS011;64964;48.694;21.206;2023-12-07T05:16:48;13.85;;;7.13;;
76194;SDS011;64964;48.694;21.206;2023-12-07T05:19:17;13.45;;;6.93;;
76194;SDS011;64964;48.694;21.206;2023-12-07T05:21:44;12.47;;;6.60;;
76194;SDS011;64964;48.694;21.206;2023-12-07T05:24:09;13.82;;;6.95;;
76194;SDS011;64964;48.694;21.206;2023-12-07T05:26:34;11.80;;;6.37;;
76194;SDS011;64964;48.694;21.206;2023-12-07T05:29:00;18.50;;;8.37;;
76194;SDS011;64964;48.694;21.206;2023-12-07T05:31:26;13.48;;;7.10;;
76194;SDS011;64964;48.694;21.206;2023-12-07T05:33:52;16.23;;;8.90;;
76194;SDS011;64964;48.694;21.206;2023-12-07T05:36:17;19.50;;;9.87;;
76194;SDS011;64964;48.694;21.206;2023-12-07T05:38:43;19.60;;;10.70;;
76194;SDS011;64964;48.694;21.206;2023-12-07T05:41:08;17.83;;;11.10;;
76194;SDS011;64964;48.694;21.206;2023-12-07T05:43:34;20.77;;;11.80;;
76194;SDS011;64964;48.694;21.206;2023-12-07T05:46:00;16.50;;;9.73;;
76194;SDS011;64964;48.694;21.206;2023-12-07T05:48:25;8.00;;;5.10;;
76194;SDS011;64964;48.694;21.206;2023-12-07T05:50:50;9.70;;;5.50;;
76194;SDS011;64964;48.694;21.206;2023-12-07T05:53:16;10.07;;;5.60;;
76194;SDS011;64964;48.694;21.206;2023-12-07T05:55:41;8.30;;;5.10;;
76194;SDS011;64964;48.694;21.206;2023-12-07T05:58:06;9.05;;;5.07;;
76194;SDS011;64964;48.694;21.206;2023-12-07T06:00:32;7.63;;;4.80;;
76194;SDS011;64964;48.694;21.206;2023-12-07T06:02:57;9.57;;;5.47;;
76194;SDS011;64964;48.694;21.206;2023-12-07T06:05:22;10.60;;;5.70;;
76194;SDS011;64964;48.694;21.206;2023-12-07T06:07:48;7.77;;;5.13;;
76194;SDS011;64964;48.694;21.206;2023-12-07T06:10:13;8.00;;;5.27;;
76194;SDS011;64964;48.694;21.206;2023-12-07T06:12:38;9.17;;;5.50;;
76194;SDS011;64964;48.694;21.206;2023-12-07T06:15:04;8.93;;;5.00;;
76194;SDS011;64964;48.694;21.206;2023-12-07T06:17:32;9.23;;;5.53;;
76194;SDS011;64964;48.694;21.206;2023-12-07T06:20:00;8.48;;;5.40;;
76194;SDS011;64964;48.694;21.206;2023-12-07T06:22:26;9.23;;;5.57;;
76194;SDS011;64964;48.694;21.206;2023-12-07T06:24:51;8.43;;;5.10;;
76194;SDS011;64964;48.694;21.206;2023-12-07T06:27:17;8.27;;;5.40;;
76194;SDS011;64964;48.694;21.206;2023-12-07T06:29:43;7.95;;;5.22;;
76194;SDS011;64964;48.694;21.206;2023-12-07T06:32:08;9.73;;;5.60;;
76194;SDS011;64964;48.694;21.206;2023-12-07T06:34:34;9.80;;;5.67;;
76194;SDS011;64964;48.694;21.206;2023-12-07T06:37:05;9.48;;;5.63;;
76194;SDS011;64964;48.694;21.206;2023-12-07T06:39:30;8.40;;;5.10;;
76194;SDS011;64964;48.694;21.206;2023-12-07T06:41:55;9.17;;;5.87;;
76194;SDS011;64964;48.694;21.206;2023-12-07T06:44:21;11.27;;;5.93;;
76194;SDS011;64964;48.694;21.206;2023-12-07T06:46:46;9.70;;;6.20;;
76194;SDS011;64964;48.694;21.206;2023-12-07T06:49:11;9.63;;;5.80;;
76194;SDS011;64964;48.694;21.206;2023-12-07T06:51:37;11.98;;;6.00;;
76194;SDS011;64964;48.694;21.206;2023-12-07T06:54:03;12.65;;;6.90;;
76194;SDS011;64964;48.694;21.206;2023-12-07T06:56:29;11.90;;;6.80;;
76194;SDS011;64964;48.694;21.206;2023-12-07T06:58:54;11.98;;;6.95;;
76194;SDS011;64964;48.694;21.206;2023-12-07T07:01:20;10.87;;;6.47;;
76194;SDS011;64964;48.694;21.206;2023-12-07T07:03:45;11.93;;;6.43;;
76194;SDS011;64964;48.694;21.206;2023-12-07T07:06:11;11.03;;;6.53;;
76194;SDS011;64964;48.694;21.206;2023-12-07T07:08:36;11.57;;;6.80;;
76194;SDS011;64964;48.694;21.206;2023-12-07T07:11:01;12.77;;;6.53;;
76194;SDS011;64964;48.694;21.206;2023-12-07T07:13:28;12.35;;;7.05;;
76194;SDS011;64964;48.694;21.206;2023-12-07T07:15:54;12.33;;;7.00;;
76194;SDS011;64964;48.694;21.206;2023-12-07T07:18:20;11.15;;;6.30;;
76194;SDS011;64964;48.694;21.206;2023-12-07T07:20:48;12.40;;;6.60;;
76194;SDS011;64964;48.694;21.206;2023-12-07T07:23:14;11.47;;;6.87;;
76194;SDS011;64964;48.694;21.206;2023-12-07T07:25:39;11.67;;;7.07;;
76194;SDS011;64964;48.694;21.206;2023-12-07T07:28:05;10.80;;;6.97;;
76194;SDS011;64964;48.694;21.206;2023-12-07T07:30:30;10.50;;;6.93;;
76194;SDS011;64964;48.694;21.206;2023-12-07T07:32:56;11.80;;;7.53;;
76194;SDS011;64964;48.694;21.206;2023-12-07T07:35:21;11.97;;;7.60;;
76194;SDS011;64964;48.694;21.206;2023-12-07T07:37:47;16.00;;;8.70;;
76194;SDS011;64964;48.694;21.206;2023-12-07T07:40:12;16.57;;;9.37;;
76194;SDS011;64964;48.694;21.206;2023-12-07T07:42:40;20.07;;;10.70;;
76194;SDS011;64964;48.694;21.206;2023-12-07T07:45:06;18.40;;;9.88;;
76194;SDS011;64964;48.694;21.206;2023-12-07T07:47:32;15.50;;;8.65;;
76194;SDS011;64964;48.694;21.206;2023-12-07T07:49:57;15.20;;;8.90;;
76194;SDS011;64964;48.694;21.206;2023-12-07T07:52:23;15.10;;;8.45;;
76194;SDS011;64964;48.694;21.206;2023-12-07T07:54:49;17.60;;;9.47;;
76194;SDS011;64964;48.694;21.206;2023-12-07T07:57:14;14.37;;;8.17;;
76194;SDS011;64964;48.694;21.206;2023-12-07T07:59:39;14.97;;;8.70;;
76194;SDS011;64964;48.694;21.206;2023-12-07T08:02:05;15.33;;;8.57;;
76194;SDS011;64964;48.694;21.206;2023-12-07T08:04:30;16.40;;;8.70;;
76194;SDS011;64964;48.694;21.206;2023-12-07T08:06:55;16.53;;;8.77;;
76194;SDS011;64964;48.694;21.206;2023-12-07T08:09:21;14.13;;;7.70;;
76194;SDS011;64964;48.694;21.206;2023-12-07T08:11:46;15.43;;;8.47;;
76194;SDS011;64964;48.694;21.206;2023-12-07T08:14:11;15.53;;;9.10;;
76194;SDS011;64964;48.694;21.206;2023-12-07T08:16:37;14.88;;;8.50;;
76194;SDS011;64964;48.694;21.206;2023-12-07T08:19:03;16.20;;;9.00;;
76194;SDS011;64964;48.694;21.206;2023-12-07T08:21:28;14.35;;;8.65;;
76194;SDS011;64964;48.694;21.206;2023-12-07T08:23:54;16.30;;;8.47;;
76194;SDS011;64964;48.694;21.206;2023-12-07T08:26:20;13.93;;;8.43;;
76194;SDS011;64964;48.694;21.206;2023-12-07T08:28:46;14.57;;;8.63;;
76194;SDS011;64964;48.694;21.206;2023-12-07T08:31:12;15.93;;;8.23;;
76194;SDS011;64964;48.694;21.206;2023-12-07T08:33:37;13.87;;;7.90;;
76194;SDS011;64964;48.694;21.206;2023-12-07T08:36:05;16.33;;;8.02;;
76194;SDS011;64964;48.694;21.206;2023-12-07T08:38:31;14.10;;;8.37;;
76194;SDS011;64964;48.694;21.206;2023-12-07T08:40:57;13.80;;;8.05;;
76194;SDS011;64964;48.694;21.206;2023-12-07T08:43:23;14.43;;;8.50;;
76194;SDS011;64964;48.694;21.206;2023-12-07T08:45:49;14.77;;;8.10;;
76194;SDS011;64964;48.694;21.206;2023-12-07T08:48:15;18.92;;;9.30;;
76194;SDS011;64964;48.694;21.206;2023-12-07T08:50:41;15.27;;;8.97;;
76194;SDS011;64964;48.694;21.206;2023-12-07T08:53:06;19.20;;;9.80;;
76194;SDS011;64964;48.694;21.206;2023-12-07T08:55:32;16.63;;;9.00;;
76194;SDS011;64964;48.694;21.206;2023-12-07T08:57:57;17.33;;;9.23;;
76194;SDS011;64964;48.694;21.206;2023-12-07T09:00:24;17.38;;;9.48;;
76194;SDS011;64964;48.694;21.206;2023-12-07T09:02:50;17.03;;;10.00;;
76194;SDS011;64964;48.694;21.206;2023-12-07T09:05:17;17.98;;;9.30;;
76194;SDS011;64964;48.694;21.206;2023-12-07T09:07:42;16.80;;;9.25;;
76194;SDS011;64964;48.694;21.206;2023-12-07T09:10:08;16.27;;;9.30;;
76194;SDS011;64964;48.694;21.206;2023-12-07T09:12:34;15.30;;;8.48;;
76194;SDS011;64964;48.694;21.206;2023-12-07T09:15:01;16.98;;;9.45;;
76194;SDS011;64964;48.694;21.206;2023-12-07T09:17:27;18.02;;;9.02;;
76194;SDS011;64964;48.694;21.206;2023-12-07T09:19:52;18.80;;;10.00;;
76194;SDS011;64964;48.694;21.206;2023-12-07T09:22:18;20.27;;;10.52;;
76194;SDS011;64964;48.694;21.206;2023-12-07T09:24:45;20.63;;;11.53;;
76194;SDS011;64964;48.694;21.206;2023-12-07T09:27:11;18.63;;;10.05;;
76194;SDS011;64964;48.694;21.206;2023-12-07T09:29:38;20.17;;;9.77;;
76194;SDS011;64964;48.694;21.206;2023-12-07T09:32:03;18.57;;;10.23;;
76194;SDS011;64964;48.694;21.206;2023-12-07T09:34:29;18.23;;;9.75;;
76194;SDS011;64964;48.694;21.206;2023-12-07T09:37:10;16.60;;;9.17;;
76194;SDS011;64964;48.694;21.206;2023-12-07T09:39:36;17.08;;;9.35;;
76194;SDS011;64964;48.694;21.206;2023-12-07T09:42:01;16.23;;;9.70;;
76194;SDS011;64964;48.694;21.206;2023-12-07T09:44:27;19.17;;;10.18;;
76194;SDS011;64964;48.694;21.206;2023-12-07T09:46:53;17.58;;;9.77;;
76194;SDS011;64964;48.694;21.206;2023-12-07T09:49:19;17.13;;;9.73;;
76194;SDS011;64964;48.694;21.206;2023-12-07T09:51:46;20.17;;;10.60;;
76194;SDS011;64964;48.694;21.206;2023-12-07T09:54:12;20.83;;;9.87;;
76194;SDS011;64964;48.694;21.206;2023-12-07T09:56:38;18.10;;;9.48;;
76194;SDS011;64964;48.694;21.206;2023-12-07T09:59:03;19.15;;;9.95;;
76194;SDS011;64964;48.694;21.206;2023-12-07T10:01:29;17.37;;;9.40;;
76194;SDS011;64964;48.694;21.206;2023-12-07T10:04:14;17.08;;;9.57;;
76194;SDS011;64964;48.694;21.206;2023-12-07T10:06:51;19.05;;;9.45;;
76194;SDS011;64964;48.694;21.206;2023-12-07T10:09:17;17.45;;;9.90;;
76194;SDS011;64964;48.694;21.206;2023-12-07T10:11:49;18.58;;;10.05;;
76194;SDS011;64964;48.694;21.206;2023-12-07T10:14:14;17.57;;;10.07;;
76194;SDS011;64964;48.694;21.206;2023-12-07T10:16:53;20.73;;;10.33;;
76194;SDS011;64964;48.694;21.206;2023-12-07T10:19:21;20.77;;;10.65;;
76194;SDS011;64964;48.694;21.206;2023-12-07T10:21:48;19.08;;;10.52;;
76194;SDS011;64964;48.694;21.206;2023-12-07T10:24:15;17.92;;;10.52;;
76194;SDS011;64964;48.694;21.206;2023-12-07T10:26:45;19.65;;;10.15;;
76194;SDS011;64964;48.694;21.206;2023-12-07T10:29:11;20.53;;;10.33;;
76194;SDS011;64964;48.694;21.206;2023-12-07T10:31:37;21.40;;;11.10;;
76194;SDS011;64964;48.694;21.206;2023-12-07T10:34:02;21.50;;;11.60;;
76194;SDS011;64964;48.694;21.206;2023-12-07T10:36:29;21.15;;;11.02;;
76194;SDS011;64964;48.694;21.206;2023-12-07T10:38:55;22.45;;;11.43;;
76194;SDS011;64964;48.694;21.206;2023-12-07T10:41:21;21.90;;;11.52;;
76194;SDS011;64964;48.694;21.206;2023-12-07T10:43:49;20.23;;;11.27;;
76194;SDS011;64964;48.694;21.206;2023-12-07T10:46:22;20.95;;;11.20;;
76194;SDS011;64964;48.694;21.206;2023-12-07T10:48:48;22.92;;;12.55;;
76194;SDS011;64964;48.694;21.206;2023-12-07T10:51:34;25.23;;;13.70;;
76194;SDS011;64964;48.694;21.206;2023-12-07T10:54:06;28.30;;;14.87;;
76194;SDS011;64964;48.694;21.206;2023-12-07T10:56:43;26.77;;;15.02;;
76194;SDS011;64964;48.694;21.206;2023-12-07T10:59:09;32.10;;;16.58;;
76194;SDS011;64964;48.694;21.206;2023-12-07T11:01:37;31.58;;;15.52;;
76194;SDS011;64964;48.694;21.206;2023-12-07T11:04:07;25.83;;;14.45;;
76194;SDS011;64964;48.694;21.206;2023-12-07T11:06:36;28.00;;;13.83;;
76194;SDS011;64964;48.694;21.206;2023-12-07T11:09:05;27.15;;;13.98;;
76194;SDS011;64964;48.694;21.206;2023-12-07T11:11:35;26.00;;;13.07;;
76194;SDS011;64964;48.694;21.206;2023-12-07T11:14:07;26.70;;;13.57;;
76194;SDS011;64964;48.694;21.206;2023-12-07T11:16:37;30.88;;;14.98;;
76194;SDS011;64964;48.694;21.206;2023-12-07T11:19:06;32.10;;;15.10;;
76194;SDS011;64964;48.694;21.206;2023-12-07T11:22:11;28.55;;;14.10;;
76194;SDS011;64964;48.694;21.206;2023-12-07T11:24:38;27.52;;;14.50;;
76194;SDS011;64964;48.694;21.206;2023-12-07T11:27:17;29.60;;;15.75;;
76194;SDS011;64964;48.694;21.206;2023-12-07T11:29:43;28.23;;;14.53;;
76194;SDS011;64964;48.694;21.206;2023-12-07T11:32:11;34.88;;;18.30;;
76194;SDS011;64964;48.694;21.206;2023-12-07T11:34:40;31.77;;;14.97;;
76194;SDS011;64964;48.694;21.206;2023-12-07T11:37:07;28.70;;;16.33;;
76194;SDS011;64964;48.694;21.206;2023-12-07T11:39:36;27.92;;;14.30;;
76194;SDS011;64964;48.694;21.206;2023-12-07T11:42:06;28.20;;;15.18;;
76194;SDS011;64964;48.694;21.206;2023-12-07T11:44:34;36.10;;;16.90;;
76194;SDS011;64964;48.694;21.206;2023-12-07T11:47:04;36.53;;;17.67;;
76194;SDS011;64964;48.694;21.206;2023-12-07T11:49:30;37.45;;;18.80;;
76194;SDS011;64964;48.694;21.206;2023-12-07T11:51:56;35.67;;;17.77;;
76194;SDS011;64964;48.694;21.206;2023-12-07T11:54:28;34.85;;;16.75;;
76194;SDS011;64964;48.694;21.206;2023-12-07T11:57:02;32.43;;;15.87;;
76194;SDS011;64964;48.694;21.206;2023-12-07T11:59:28;31.95;;;16.10;;
76194;SDS011;64964;48.694;21.206;2023-12-07T12:01:54;37.47;;;18.25;;
76194;SDS011;64964;48.694;21.206;2023-12-07T12:04:21;31.27;;;15.17;;
76194;SDS011;64964;48.694;21.206;2023-12-07T12:06:46;31.35;;;16.33;;
76194;SDS011;64964;48.694;21.206;2023-12-07T12:09:15;31.83;;;16.33;;
76194;SDS011;64964;48.694;21.206;2023-12-07T12:11:46;33.58;;;18.08;;
76194;SDS011;64964;48.694;21.206;2023-12-07T12:14:21;31.83;;;16.67;;
76194;SDS011;64964;48.694;21.206;2023-12-07T12:16:47;30.30;;;16.88;;
76194;SDS011;64964;48.694;21.206;2023-12-07T12:19:12;32.03;;;15.20;;
76194;SDS011;64964;48.694;21.206;2023-12-07T12:21:40;31.37;;;17.10;;
76194;SDS011;64964;48.694;21.206;2023-12-07T12:24:08;30.88;;;16.17;;
76194;SDS011;64964;48.694;21.206;2023-12-07T12:26:36;28.40;;;15.07;;
76194;SDS011;64964;48.694;21.206;2023-12-07T12:29:04;26.77;;;13.38;;
76194;SDS011;64964;48.694;21.206;2023-12-07T12:31:30;26.70;;;14.27;;
76194;SDS011;64964;48.694;21.206;2023-12-07T12:33:56;28.70;;;14.47;;
76194;SDS011;64964;48.694;21.206;2023-12-07T12:36:21;30.43;;;14.10;;
76194;SDS011;64964;48.694;21.206;2023-12-07T12:38:51;28.70;;;14.60;;
76194;SDS011;64964;48.694;21.206;2023-12-07T12:41:19;27.08;;;14.82;;
76194;SDS011;64964;48.694;21.206;2023-12-07T12:43:46;25.52;;;13.95;;
76194;SDS011;64964;48.694;21.206;2023-12-07T12:46:12;28.30;;;14.17;;
76194;SDS011;64964;48.694;21.206;2023-12-07T12:48:52;30.02;;;14.80;;
76194;SDS011;64964;48.694;21.206;2023-12-07T12:51:27;28.13;;;14.35;;
76194;SDS011;64964;48.694;21.206;2023-12-07T12:53:54;26.10;;;14.07;;
76194;SDS011;64964;48.694;21.206;2023-12-07T12:56:21;25.30;;;12.77;;
76194;SDS011;64964;48.694;21.206;2023-12-07T12:58:50;28.15;;;14.05;;
76194;SDS011;64964;48.694;21.206;2023-12-07T13:01:16;27.42;;;14.35;;
76194;SDS011;64964;48.694;21.206;2023-12-07T13:03:48;29.70;;;14.25;;
76194;SDS011;64964;48.694;21.206;2023-12-07T13:06:14;31.80;;;14.03;;
76194;SDS011;64964;48.694;21.206;2023-12-07T13:08:41;28.98;;;14.60;;
76194;SDS011;64964;48.694;21.206;2023-12-07T13:11:06;29.25;;;14.10;;
76194;SDS011;64964;48.694;21.206;2023-12-07T13:13:32;27.63;;;14.37;;
76194;SDS011;64964;48.694;21.206;2023-12-07T13:15:57;30.70;;;13.82;;
76194;SDS011;64964;48.694;21.206;2023-12-07T13:18:23;31.00;;;16.33;;
76194;SDS011;64964;48.694;21.206;2023-12-07T13:20:48;65.13;;;30.33;;
76194;SDS011;64964;48.694;21.206;2023-12-07T13:23:13;58.87;;;31.70;;
76194;SDS011;64964;48.694;21.206;2023-12-07T13:25:39;39.10;;;20.93;;
76194;SDS011;64964;48.694;21.206;2023-12-07T13:28:06;31.33;;;19.10;;
76194;SDS011;64964;48.694;21.206;2023-12-07T13:30:33;33.70;;;16.85;;
76194;SDS011;64964;48.694;21.206;2023-12-07T13:33:00;43.63;;;20.38;;
76194;SDS011;64964;48.694;21.206;2023-12-07T13:35:26;34.67;;;17.40;;
76194;SDS011;64964;48.694;21.206;2023-12-07T13:37:51;33.33;;;17.50;;
76194;SDS011;64964;48.694;21.206;2023-12-07T13:40:17;31.20;;;16.67;;
76194;SDS011;64964;48.694;21.206;2023-12-07T13:42:42;30.83;;;16.20;;
76194;SDS011;64964;48.694;21.206;2023-12-07T13:45:08;29.97;;;15.47;;
76194;SDS011;64964;48.694;21.206;2023-12-07T13:47:33;32.38;;;15.68;;
76194;SDS011;64964;48.694;21.206;2023-12-07T13:50:02;31.05;;;14.52;;
76194;SDS011;64964;48.694;21.206;2023-12-07T13:52:29;27.57;;;14.53;;
76194;SDS011;64964;48.694;21.206;2023-12-07T13:54:54;33.28;;;16.55;;
76194;SDS011;64964;48.694;21.206;2023-12-07T13:57:20;28.65;;;14.80;;
76194;SDS011;64964;48.694;21.206;2023-12-07T13:59:49;28.27;;;14.80;;
76194;SDS011;64964;48.694;21.206;2023-12-07T14:02:15;33.37;;;16.53;;
76194;SDS011;64964;48.694;21.206;2023-12-07T14:04:41;27.33;;;14.93;;
76194;SDS011;64964;48.694;21.206;2023-12-07T14:07:07;29.47;;;15.23;;
76194;SDS011;64964;48.694;21.206;2023-12-07T14:09:37;30.48;;;15.90;;
76194;SDS011;64964;48.694;21.206;2023-12-07T14:12:03;31.02;;;16.15;;
76194;SDS011;64964;48.694;21.206;2023-12-07T14:14:29;35.70;;;15.13;;
76194;SDS011;64964;48.694;21.206;2023-12-07T14:16:54;26.27;;;14.30;;